Observation data for Silverton on 09/21/2020      Previous  Date  Next       Current Mesonet Observations  Soil Data  Daily Summary Page  Observations in Plain Language
KSVS 210500Z 13009KT 16/08 A3021 RMK A01 T01550075  RH  060%=      5-min Rain = 0
KSVS 210505Z 14009KT 15/08 A3021 RMK A01 T01540075  RH  061%=      5-min Rain = 0
KSVS 210510Z 14008KT 15/07 A3021 RMK A01 T01530074  RH  061%=      5-min Rain = 0
KSVS 210515Z 14008KT 15/07 A3021 RMK A01 T01520074  RH  061%=      5-min Rain = 0
KSVS 210520Z 14007KT 15/07 A3021 RMK A01 T01510074  RH  062%=      5-min Rain = 0
KSVS 210525Z 14007KT 15/07 A3021 RMK A01 T01480074  RH  063%=      5-min Rain = 0
KSVS 210530Z 14007KT 14/07 A3021 RMK A01 T01440073  RH  064%=      5-min Rain = 0
KSVS 210535Z 13007KT 14/07 A3021 RMK A01 T01410072  RH  065%=      5-min Rain = 0
KSVS 210540Z 14008KT 14/07 A3021 RMK A01 T01370072  RH  066%=      5-min Rain = 0
KSVS 210545Z 14008KT 14/07 A3021 RMK A01 T01370072  RH  066%=      5-min Rain = 0
KSVS 210550Z 13008KT 14/07 A3021 RMK A01 T01390073  RH  066%=      5-min Rain = 0
KSVS 210555Z 14009KT 14/07 A3021 RMK A01 T01400074  RH  066%=      5-min Rain = 0
KSVS 210600Z 14008KT 14/08 A3021 RMK A01 T01430077  RH  066%=      5-min Rain = 0
KSVS 210605Z 14008KT 15/08 A3021 RMK A01 T01450078  RH  066%=      5-min Rain = 0
KSVS 210610Z 14008KT 15/08 A3021 RMK A01 T01480080  RH  066%=      5-min Rain = 0
KSVS 210615Z 14008KT 15/08 A3021 RMK A01 T01480082  RH  066%=      5-min Rain = 0
KSVS 210620Z 14008KT 15/08 A3021 RMK A01 T01500083  RH  066%=      5-min Rain = 0
KSVS 210625Z 14008KT 15/08 A3021 RMK A01 T01480082  RH  067%=      5-min Rain = 0
KSVS 210630Z 14008KT 15/08 A3021 RMK A01 T01450082  RH  068%=      5-min Rain = 0
KSVS 210635Z 13008KT 14/08 A3021 RMK A01 T01440083  RH  069%=      5-min Rain = 0
KSVS 210640Z 14008KT 14/08 A3021 RMK A01 T01420083  RH  070%=      5-min Rain = 0
KSVS 210645Z 14008KT 14/08 A3021 RMK A01 T01430084  RH  070%=      5-min Rain = 0
KSVS 210650Z 14008KT 14/08 A3021 RMK A01 T01420083  RH  070%=      5-min Rain = 0
KSVS 210655Z 14007KT 14/08 A3021 RMK A01 T01400083  RH  070%=      5-min Rain = 0
KSVS 210700Z 13006KT 14/08 A3021 RMK A01 T01390084  RH  071%=      5-min Rain = 0
KSVS 210705Z 13007KT 14/09 A3021 RMK A01 T01390085  RH  072%=      5-min Rain = 0
KSVS 210710Z 13006KT 14/08 A3021 RMK A01 T01370084  RH  072%=      5-min Rain = 0
KSVS 210715Z 13006KT 14/08 A3021 RMK A01 T01360084  RH  073%=      5-min Rain = 0
KSVS 210720Z 13006KT 14/08 A3021 RMK A01 T01360084  RH  073%=      5-min Rain = 0
KSVS 210725Z 13005KT 14/08 A3021 RMK A01 T01350084  RH  073%=      5-min Rain = 0
KSVS 210730Z 13005KT 13/08 A3021 RMK A01 T01330084  RH  074%=      5-min Rain = 0
KSVS 210735Z 14005KT 13/08 A3021 RMK A01 T01310083  RH  074%=      5-min Rain = 0
KSVS 210740Z 13006KT 13/08 A3021 RMK A01 T01300082  RH  075%=      5-min Rain = 0
KSVS 210745Z 14005KT 13/08 A3022 RMK A01 T01280082  RH  076%=      5-min Rain = 0
KSVS 210750Z 14006KT 13/08 A3022 RMK A01 T01290083  RH  076%=      5-min Rain = 0
KSVS 210755Z 14006KT 13/08 A3021 RMK A01 T01280082  RH  076%=      5-min Rain = 0
KSVS 210800Z 14005KT 13/08 A3021 RMK A01 T01260082  RH  077%=      5-min Rain = 0
KSVS 210805Z 14006KT 13/08 A3021 RMK A01 T01250082  RH  077%=      5-min Rain = 0
KSVS 210810Z 14006KT 12/08 A3021 RMK A01 T01220081  RH  078%=      5-min Rain = 0
KSVS 210815Z 14006KT 12/08 A3021 RMK A01 T01190081  RH  079%=      5-min Rain = 0
KSVS 210820Z 14005KT 12/08 A3021 RMK A01 T01190080  RH  079%=      5-min Rain = 0
KSVS 210825Z 14005KT 12/08 A3021 RMK A01 T01200080  RH  078%=      5-min Rain = 0
KSVS 210830Z 14005KT 12/08 A3021 RMK A01 T01210080  RH  078%=      5-min Rain = 0
KSVS 210835Z 14005KT 12/08 A3021 RMK A01 T01190079  RH  078%=      5-min Rain = 0
KSVS 210840Z 14005KT 12/08 A3021 RMK A01 T01190079  RH  079%=      5-min Rain = 0
KSVS 210845Z 14005KT 12/08 A3021 RMK A01 T01170078  RH  079%=      5-min Rain = 0
KSVS 210850Z 14005KT 12/08 A3021 RMK A01 T01150077  RH  080%=      5-min Rain = 0
KSVS 210855Z 15006KT 11/08 A3021 RMK A01 T01110075  RH  081%=      5-min Rain = 0
KSVS 210900Z 15007KT 11/07 A3021 RMK A01 T01070074  RH  082%=      5-min Rain = 0
KSVS 210905Z 15007KT 10/07 A3021 RMK A01 T01000069  RH  084%=      5-min Rain = 0
KSVS 210910Z 15006KT 10/07 A3021 RMK A01 T00960070  RH  086%=      5-min Rain = 0
KSVS 210915Z 15006KT 10/07 A3021 RMK A01 T00950069  RH  086%=      5-min Rain = 0
KSVS 210920Z 16004KT 09/07 A3021 RMK A01 T00930070  RH  087%=      5-min Rain = 0
KSVS 210925Z 20001KT 09/07 A3021 RMK A01 T00900067  RH  087%=      5-min Rain = 0
KSVS 210930Z 18002KT 09/07 A302 RMK A01 T00930071  RH  089%=      5-min Rain = 0
KSVS 210935Z 16003KT 10/07 A3021 RMK A01 T00950072  RH  088%=      5-min Rain = 0
KSVS 210940Z 16004KT 10/07 A3021 RMK A01 T00970074  RH  088%=      5-min Rain = 0
KSVS 210945Z 16005KT 10/08 A3021 RMK A01 T00990075  RH  087%=      5-min Rain = 0
KSVS 210950Z 16005KT 10/07 A3021 RMK A01 T00990074  RH  087%=      5-min Rain = 0
KSVS 210955Z 16006KT 10/07 A3021 RMK A01 T01000074  RH  086%=      5-min Rain = 0
KSVS 211000Z 16006KT 10/07 A3021 RMK A01 T01000073  RH  085%=      5-min Rain = 0
KSVS 211005Z 16007KT 10/07 A3021 RMK A01 T00990071  RH  085%=      5-min Rain = 0
KSVS 211010Z 16007KT 10/07 A3021 RMK A01 T00960068  RH  085%=      5-min Rain = 0
KSVS 211015Z 16006KT 09/07 A3021 RMK A01 T00910066  RH  087%=      5-min Rain = 0
KSVS 211020Z 16005KT 09/07 A3021 RMK A01 T00930070  RH  088%=      5-min Rain = 0
KSVS 211025Z 16005KT 10/07 A3021 RMK A01 T00970072  RH  087%=      5-min Rain = 0
KSVS 211030Z 16006KT 10/07 A3021 RMK A01 T01000072  RH  085%=      5-min Rain = 0
KSVS 211035Z 16006KT 10/07 A3021 RMK A01 T01010073  RH  085%=      5-min Rain = 0
KSVS 211040Z 16006KT 10/07 A3021 RMK A01 T00980070  RH  085%=      5-min Rain = 0
KSVS 211045Z 16005KT 10/07 A3021 RMK A01 T00960069  RH  085%=      5-min Rain = 0
KSVS 211050Z 18003KT 09/07 A3021 RMK A01 T00930069  RH  087%=      5-min Rain = 0
KSVS 211055Z 18003KT 10/07 A3021 RMK A01 T00950072  RH  088%=      5-min Rain = 0
KSVS 211100Z 17004KT 10/08 A3021 RMK A01 T00990075  RH  087%=      5-min Rain = 0
KSVS 211105Z 18003KT 10/08 A3021 RMK A01 T01000075  RH  087%=      5-min Rain = 0
KSVS 211110Z 17003KT 10/08 A3021 RMK A01 T01040077  RH  086%=      5-min Rain = 0
KSVS 211115Z 16003KT 11/08 A3021 RMK A01 T01060075  RH  084%=      5-min Rain = 0
KSVS 211120Z 16003KT 11/08 A3021 RMK A01 T01050075  RH  084%=      5-min Rain = 0
KSVS 211125Z 16003KT 10/07 A3021 RMK A01 T01020074  RH  085%=      5-min Rain = 0
KSVS 211130Z 16003KT 11/08 A3021 RMK A01 T01050077  RH  085%=      5-min Rain = 0
KSVS 211135Z 16004KT 11/08 A3021 RMK A01 T01060077  RH  085%=      5-min Rain = 0
KSVS 211140Z 16004KT 11/08 A3022 RMK A01 T01060076  RH  084%=      5-min Rain = 0
KSVS 211145Z 15004KT 11/08 A3022 RMK A01 T01060076  RH  084%=      5-min Rain = 0
KSVS 211150Z 15004KT 10/07 A3022 RMK A01 T01030073  RH  084%=      5-min Rain = 0
KSVS 211155Z 16004KT 10/07 A3022 RMK A01 T00990073  RH  086%=      5-min Rain = 0
KSVS 211200Z 16004KT 10/08 A3022 RMK A01 T01000075  RH  086%=      5-min Rain = 0
KSVS 211205Z 17003KT 10/08 A3022 RMK A01 T01010076  RH  087%=      5-min Rain = 0
KSVS 211210Z 20002KT 10/07 A3022 RMK A01 T00970069  RH  085%=      5-min Rain = 0
KSVS 211215Z 22003KT 09/06 A3023 RMK A01 T00870064  RH  088%=      5-min Rain = 0
KSVS 211220Z 23003KT 09/07 A3023 RMK A01 T00880067  RH  089%=      5-min Rain = 0
KSVS 211225Z 23003KT 09/06 A3023 RMK A01 T00880064  RH  087%=      5-min Rain = 0
KSVS 211230Z 22004KT 09/07 A3023 RMK A01 T00890066  RH  088%=      5-min Rain = 0
KSVS 211235Z 21004KT 09/07 A3023 RMK A01 T00920071  RH  089%=      5-min Rain = 0
KSVS 211240Z 23005KT 09/06 A3023 RMK A01 T00870061  RH  086%=      5-min Rain = 0
KSVS 211245Z 25005KT 08/05 A3023 RMK A01 T00750051  RH  087%=      5-min Rain = 0
KSVS 211250Z 26005KT 07/05 A3023 RMK A01 T00710051  RH  089%=      5-min Rain = 0
KSVS 211255Z 25005KT 07/05 A3023 RMK A01 T00700053  RH  090%=      5-min Rain = 0
KSVS 211300Z 24005KT 07/06 A3023 RMK A01 T00730055  RH  091%=      5-min Rain = 0
KSVS 211305Z 26004KT 07/06 A3023 RMK A01 T00740055  RH  090%=      5-min Rain = 0
KSVS 211310Z 25005KT 08/06 A3023 RMK A01 T00750056  RH  090%=      5-min Rain = 0
KSVS 211315Z 24006KT 08/06 A3024 RMK A01 T00810061  RH  090%=      5-min Rain = 0
KSVS 211320Z 24006KT 09/07 A3024 RMK A01 T00870065  RH  088%=      5-min Rain = 0
KSVS 211325Z 22006KT 09/07 A3024 RMK A01 T00940071  RH  088%=      5-min Rain = 0
KSVS 211330Z 22006KT 11/08 A3024 RMK A01 T01050082  RH  088%=      5-min Rain = 0
KSVS 211335Z 22006KT 11/08 A3024 RMK A01 T01110084  RH  086%=      5-min Rain = 0
KSVS 211340Z 22007KT 12/09 A3024 RMK A01 T01170087  RH  084%=      5-min Rain = 0
KSVS 211345Z 22006KT 12/09 A3024 RMK A01 T01230090  RH  083%=      5-min Rain = 0
KSVS 211350Z 21006KT 13/10 A3024 RMK A01 T01320096  RH  081%=      5-min Rain = 0
KSVS 211355Z 21005KT 14/10 A3024 RMK A01 T01390099  RH  079%=      5-min Rain = 0
KSVS 211400Z 21005KT 15/10 A3024 RMK A01 T01450101  RH  077%=      5-min Rain = 0
KSVS 211405Z 21006KT 15/10 A3025 RMK A01 T01510102  RH  075%=      5-min Rain = 0
KSVS 211410Z 21006KT 16/10 A3025 RMK A01 T01560102  RH  073%=      5-min Rain = 0
KSVS 211415Z 20006KT 16/10 A3025 RMK A01 T01600103  RH  071%=      5-min Rain = 0
KSVS 211420Z 20006KT 17/10 A3025 RMK A01 T01650103  RH  069%=      5-min Rain = 0
KSVS 211425Z 20006KT 17/10 A3025 RMK A01 T01700100  RH  066%=      5-min Rain = 0
KSVS 211430Z 20006KT 17/10 A3025 RMK A01 T01720100  RH  064%=      5-min Rain = 0
KSVS 211435Z 19006KT 18/10 A3025 RMK A01 T01780098  RH  061%=      5-min Rain = 0
KSVS 211440Z 19007KT 18/09 A3025 RMK A01 T01790094  RH  059%=      5-min Rain = 0
KSVS 211445Z 19007KT 18/09 A3025 RMK A01 T01810092  RH  058%=      5-min Rain = 0
KSVS 211450Z 19007KT 18/09 A3025 RMK A01 T01820088  RH  056%=      5-min Rain = 0
KSVS 211455Z 20007KT 19/09 A3025 RMK A01 T01850086  RH  054%=      5-min Rain = 0
KSVS 211500Z 19007KT 19/09 A3025 RMK A01 T01850085  RH  054%=      5-min Rain = 0
KSVS 211505Z 18006KT 19/09 A3025 RMK A01 T01880085  RH  052%=      5-min Rain = 0
KSVS 211510Z 16007KT 19/08 A3025 RMK A01 T01920081  RH  050%=      5-min Rain = 0
KSVS 211515Z 18006KT 19/08 A3025 RMK A01 T01910084  RH  051%=      5-min Rain = 0
KSVS 211520Z 18004G9KT 19/08 A3025 RMK A01 T01910084  RH  051%=      5-min Rain = 0
KSVS 211525Z 16005KT 20/08 A3025 RMK A01 T01950082  RH  049%=      5-min Rain = 0
KSVS 211530Z 18005KT 20/08 A3025 RMK A01 T01960082  RH  049%=      5-min Rain = 0
KSVS 211535Z 17005KT 20/08 A3025 RMK A01 T02020080  RH  046%=      5-min Rain = 0
KSVS 211540Z 16004KT 20/08 A3025 RMK A01 T02010081  RH  047%=      5-min Rain = 0
KSVS 211545Z 17004G9KT 21/08 A3025 RMK A01 T02060082  RH  046%=      5-min Rain = 0
KSVS 211550Z 15005KT 21/08 A3025 RMK A01 T02080080  RH  045%=      5-min Rain = 0
KSVS 211555Z 19004KT 21/08 A3025 RMK A01 T02100080  RH  044%=      5-min Rain = 0
KSVS 211600Z 20005KT 21/08 A3025 RMK A01 T02090078  RH  044%=      5-min Rain = 0
KSVS 211605Z 17005KT 21/08 A3026 RMK A01 T02100077  RH  043%=      5-min Rain = 0
KSVS 211610Z 14002KT 21/08 A3026 RMK A01 T02120077  RH  043%=      5-min Rain = 0
KSVS 211615Z 16003KT 22/08 A3026 RMK A01 T02180079  RH  042%=      5-min Rain = 0
KSVS 211620Z 16006KT 22/08 A3026 RMK A01 T02170078  RH  042%=      5-min Rain = 0
KSVS 211625Z 18005KT 22/07 A3026 RMK A01 T02170074  RH  041%=      5-min Rain = 0
KSVS 211630Z 18004KT 22/08 A3025 RMK A01 T02170075  RH  041%=      5-min Rain = 0
KSVS 211635Z 16004G10KT 22/08 A3025 RMK A01 T02200075  RH  041%=      5-min Rain = 0
KSVS 211640Z 13006KT 23/08 A3025 RMK A01 T02260078  RH  040%=      5-min Rain = 0
KSVS 211645Z 12003KT 22/08 A3025 RMK A01 T02210076  RH  040%=      5-min Rain = 0
KSVS 211650Z 13004G9KT 22/08 A3025 RMK A01 T02230080  RH  041%=      5-min Rain = 0
KSVS 211655Z 11007KT 22/08 A3025 RMK A01 T02240080  RH  041%=      5-min Rain = 0
KSVS 211700Z 10005KT 22/08 A3024 RMK A01 T02210079  RH  041%=      5-min Rain = 0
KSVS 211705Z 10007KT 23/08 A3024 RMK A01 T02260079  RH  040%=      5-min Rain = 0
KSVS 211710Z 15006KT 23/08 A3024 RMK A01 T02270078  RH  039%=      5-min Rain = 0
KSVS 211715Z 16004KT 23/08 A3024 RMK A01 T02250076  RH  039%=      5-min Rain = 0
KSVS 211720Z 12006KT 23/08 A3024 RMK A01 T02260076  RH  039%=      5-min Rain = 0
KSVS 211725Z 12006KT 23/08 A3024 RMK A01 T02300077  RH  038%=      5-min Rain = 0
KSVS 211730Z 13004G9KT 23/08 A3024 RMK A01 T02320076  RH  038%=      5-min Rain = 0
KSVS 211735Z 10006KT 23/07 A3024 RMK A01 T02280073  RH  038%=      5-min Rain = 0
KSVS 211740Z 10005KT 23/07 A3024 RMK A01 T02330073  RH  037%=      5-min Rain = 0
KSVS 211745Z 10004G9KT 23/07 A3023 RMK A01 T02340072  RH  036%=      5-min Rain = 0
KSVS 211750Z 12005G11KT 24/07 A3023 RMK A01 T02350071  RH  036%=      5-min Rain = 0
KSVS 211755Z 14004KT 23/07 A3023 RMK A01 T02340070  RH  036%=      5-min Rain = 0
KSVS 211800Z 17003G9KT 24/07 A3023 RMK A01 T02370069  RH  035%=      5-min Rain = 0
KSVS 211805Z 11003KT 24/07 A3023 RMK A01 T02380065  RH  034%=      5-min Rain = 0
KSVS 211810Z 14006G11KT 24/06 A3023 RMK A01 T02430063  RH  032%=      5-min Rain = 0
KSVS 211815Z 16003KT 24/06 A3022 RMK A01 T02430061  RH  032%=      5-min Rain = 0
KSVS 211820Z 06004G9KT 25/06 A3022 RMK A01 T02470056  RH  030%=      5-min Rain = 0
KSVS 211825Z 09005KT 25/06 A3022 RMK A01 T02460056  RH  030%=      5-min Rain = 0
KSVS 211830Z 16005KT 25/06 A3022 RMK A01 T02500059  RH  030%=      5-min Rain = 0
KSVS 211835Z 10005G11KT 25/06 A3021 RMK A01 T02500058  RH  030%=      5-min Rain = 0
KSVS 211840Z 08006KT 25/06 A3021 RMK A01 T02510062  RH  030%=      5-min Rain = 0
KSVS 211845Z 12005G10KT 25/06 A3021 RMK A01 T02510059  RH  030%=      5-min Rain = 0
KSVS 211850Z 12007KT 25/05 A3021 RMK A01 T02540052  RH  028%=      5-min Rain = 0
KSVS 211855Z 08005KT 25/05 A3021 RMK A01 T02520045  RH  027%=      5-min Rain = 0
KSVS 211900Z 12006G11KT 25/05 A3021 RMK A01 T02530047  RH  027%=      5-min Rain = 0
KSVS 211905Z 11004KT 26/05 A3021 RMK A01 T02550048  RH  027%=      5-min Rain = 0
KSVS 211910Z 13005G10KT 26/05 A302 RMK A01 T02560046  RH  026%=      5-min Rain = 0
KSVS 211915Z 11009KT 26/05 A302 RMK A01 T02570047  RH  026%=      5-min Rain = 0
KSVS 211920Z 13005KT 26/04 A302 RMK A01 T02550044  RH  026%=      5-min Rain = 0
KSVS 211925Z 13005G12KT 26/05 A3019 RMK A01 T02610047  RH  026%=      5-min Rain = 0
KSVS 211930Z 10007KT 26/05 A3019 RMK A01 T02640049  RH  026%=      5-min Rain = 0
KSVS 211935Z 07005G10KT 26/05 A3019 RMK A01 T02570052  RH  027%=      5-min Rain = 0
KSVS 211940Z 14006KT 26/05 A3019 RMK A01 T02590054  RH  027%=      5-min Rain = 0
KSVS 211945Z 11007G12KT 26/06 A3018 RMK A01 T02620055  RH  027%=      5-min Rain = 0
KSVS 211950Z 15004G10KT 26/05 A3018 RMK A01 T02580051  RH  027%=      5-min Rain = 0
KSVS 211955Z 11005G11KT 26/06 A3018 RMK A01 T02620057  RH  028%=      5-min Rain = 0
KSVS 212000Z 07005KT 26/05 A3018 RMK A01 T02600052  RH  027%=      5-min Rain = 0
KSVS 212005Z 09007KT 26/06 A3017 RMK A01 T02600056  RH  028%=      5-min Rain = 0
KSVS 212010Z 09004G9KT 26/05 A3017 RMK A01 T02590054  RH  027%=      5-min Rain = 0
KSVS 212015Z 10007KT 27/05 A3017 RMK A01 T02650050  RH  026%=      5-min Rain = 0
KSVS 212020Z 12007G13KT 26/05 A3017 RMK A01 T02640049  RH  026%=      5-min Rain = 0
KSVS 212025Z 08007KT 27/04 A3017 RMK A01 T02670041  RH  024%=      5-min Rain = 0
KSVS 212030Z 08007KT 27/04 A3017 RMK A01 T02650040  RH  024%=      5-min Rain = 0
KSVS 212035Z 12007KT 27/04 A3016 RMK A01 T02710043  RH  024%=      5-min Rain = 0
KSVS 212040Z 15006KT 27/04 A3016 RMK A01 T02670037  RH  023%=      5-min Rain = 0
KSVS 212045Z 12004KT 27/04 A3016 RMK A01 T02710041  RH  023%=      5-min Rain = 0
KSVS 212050Z 16006KT 27/06 A3016 RMK A01 T02700055  RH  026%=      5-min Rain = 0
KSVS 212055Z 14006KT 27/06 A3016 RMK A01 T02690063  RH  028%=      5-min Rain = 0
KSVS 212100Z 10007G12KT 27/06 A3015 RMK A01 T02690064  RH  028%=      5-min Rain = 0
KSVS 212105Z 12007G13KT 27/06 A3015 RMK A01 T02680064  RH  028%=      5-min Rain = 0
KSVS 212110Z 13007G14KT 27/07 A3015 RMK A01 T02690067  RH  028%=      5-min Rain = 0
KSVS 212115Z 14008KT 27/07 A3015 RMK A01 T02670069  RH  029%=      5-min Rain = 0
KSVS 212120Z 12008KT 27/07 A3015 RMK A01 T02670070  RH  029%=      5-min Rain = 0
KSVS 212125Z 12009G14KT 27/07 A3015 RMK A01 T02680074  RH  030%=      5-min Rain = 0
KSVS 212130Z 11008G13KT 27/07 A3015 RMK A01 T02670071  RH  030%=      5-min Rain = 0
KSVS 212135Z 10007G16KT 26/07 A3014 RMK A01 T02630065  RH  029%=      5-min Rain = 0
KSVS 212140Z 10009G15KT 27/06 A3014 RMK A01 T02660058  RH  027%=      5-min Rain = 0
KSVS 212145Z 08006G11KT 26/06 A3014 RMK A01 T02640061  RH  028%=      5-min Rain = 0
KSVS 212150Z 12009G14KT 27/06 A3014 RMK A01 T02680062  RH  028%=      5-min Rain = 0
KSVS 212155Z 09008KT 27/07 A3014 RMK A01 T02660066  RH  029%=      5-min Rain = 0
KSVS 212200Z 09005KT 27/07 A3014 RMK A01 T02650071  RH  030%=      5-min Rain = 0
KSVS 212205Z 13007G13KT 27/08 A3014 RMK A01 T02680077  RH  031%=      5-min Rain = 0
KSVS 212210Z 15010KT 27/08 A3014 RMK A01 T02680082  RH  032%=      5-min Rain = 0
KSVS 212215Z 12008KT 27/08 A3013 RMK A01 T02680083  RH  032%=      5-min Rain = 0
KSVS 212220Z 11009KT 27/08 A3013 RMK A01 T02660083  RH  032%=      5-min Rain = 0
KSVS 212225Z 11010KT 27/09 A3013 RMK A01 T02670085  RH  033%=      5-min Rain = 0
KSVS 212230Z 10010G15KT 26/08 A3013 RMK A01 T02640084  RH  033%=      5-min Rain = 0
KSVS 212235Z 12009KT 26/09 A3013 RMK A01 T02640086  RH  034%=      5-min Rain = 0
KSVS 212240Z 12011KT 26/09 A3013 RMK A01 T02630088  RH  034%=      5-min Rain = 0
KSVS 212245Z 10009KT 26/09 A3013 RMK A01 T02630088  RH  034%=      5-min Rain = 0
KSVS 212250Z 12012KT 26/09 A3013 RMK A01 T02630085  RH  033%=      5-min Rain = 0
KSVS 212255Z 11011G16KT 26/09 A3013 RMK A01 T02610091  RH  035%=      5-min Rain = 0
KSVS 212300Z 11011KT 26/10 A3013 RMK A01 T02590096  RH  037%=      5-min Rain = 0
KSVS 212305Z 10010KT 26/09 A3013 RMK A01 T02560094  RH  037%=      5-min Rain = 0
KSVS 212310Z 12009KT 26/09 A3013 RMK A01 T02560090  RH  036%=      5-min Rain = 0
KSVS 212315Z 10012KT 26/10 A3013 RMK A01 T02560095  RH  037%=      5-min Rain = 0
KSVS 212320Z 11011KT 25/10 A3013 RMK A01 T02530096  RH  038%=      5-min Rain = 0
KSVS 212325Z 10012KT 25/10 A3013 RMK A01 T02520097  RH  039%=      5-min Rain = 0
KSVS 212330Z 10012KT 25/10 A3014 RMK A01 T02500100  RH  040%=      5-min Rain = 0
KSVS 212335Z 11012G18KT 25/10 A3014 RMK A01 T02470104  RH  042%=      5-min Rain = 0
KSVS 212340Z 10012KT 25/11 A3014 RMK A01 T02460106  RH  043%=      5-min Rain = 0
KSVS 212345Z 11012KT 25/11 A3014 RMK A01 T02450108  RH  044%=      5-min Rain = 0
KSVS 212350Z 11012KT 24/11 A3014 RMK A01 T02420109  RH  045%=      5-min Rain = 0
KSVS 212355Z 11014KT 24/11 A3014 RMK A01 T02390110  RH  046%=      5-min Rain = 0
KSVS 220000Z 11012KT 24/11 A3015 RMK A01 T02370109  RH  046%=      5-min Rain = 0
KSVS 220005Z 10012KT 23/11 A3015 RMK A01 T02340109  RH  047%=      5-min Rain = 0
KSVS 220010Z 11013KT 23/11 A3015 RMK A01 T02310108  RH  047%=      5-min Rain = 0
KSVS 220015Z 10013KT 23/11 A3015 RMK A01 T02300106  RH  047%=      5-min Rain = 0
KSVS 220020Z 11012KT 23/11 A3015 RMK A01 T02270105  RH  048%=      5-min Rain = 0
KSVS 220025Z 11011KT 22/10 A3015 RMK A01 T02240103  RH  048%=      5-min Rain = 0
KSVS 220030Z 11010KT 22/10 A3015 RMK A01 T02220103  RH  048%=      5-min Rain = 0
KSVS 220035Z 11010KT 22/10 A3016 RMK A01 T02180101  RH  049%=      5-min Rain = 0
KSVS 220040Z 11011KT 22/10 A3016 RMK A01 T02160101  RH  049%=      5-min Rain = 0
KSVS 220045Z 11013KT 22/10 A3015 RMK A01 T02160104  RH  051%=      5-min Rain = 0
KSVS 220050Z 11011KT 21/11 A3016 RMK A01 T02130106  RH  052%=      5-min Rain = 0
KSVS 220055Z 11011KT 21/11 A3016 RMK A01 T02100108  RH  054%=      5-min Rain = 0
KSVS 220100Z 11011KT 21/11 A3016 RMK A01 T02090109  RH  055%=      5-min Rain = 0
KSVS 220105Z 11011KT 21/11 A3016 RMK A01 T02060110  RH  056%=      5-min Rain = 0
KSVS 220110Z 11012KT 20/11 A3016 RMK A01 T02040109  RH  056%=      5-min Rain = 0
KSVS 220115Z 11011KT 20/11 A3016 RMK A01 T02030108  RH  056%=      5-min Rain = 0
KSVS 220120Z 11011KT 20/11 A3016 RMK A01 T02010108  RH  057%=      5-min Rain = 0
KSVS 220125Z 11011KT 20/11 A3016 RMK A01 T01990107  RH  057%=      5-min Rain = 0
KSVS 220130Z 11011KT 20/11 A3016 RMK A01 T01990106  RH  057%=      5-min Rain = 0
KSVS 220135Z 11011KT 20/11 A3016 RMK A01 T01960105  RH  058%=      5-min Rain = 0
KSVS 220140Z 12010KT 19/11 A3016 RMK A01 T01940105  RH  058%=      5-min Rain = 0
KSVS 220145Z 11010KT 19/11 A3017 RMK A01 T01930105  RH  059%=      5-min Rain = 0
KSVS 220150Z 11010KT 19/11 A3017 RMK A01 T01920105  RH  059%=      5-min Rain = 0
KSVS 220155Z 11011KT 19/11 A3017 RMK A01 T01910105  RH  059%=      5-min Rain = 0
KSVS 220200Z 11012KT 19/11 A3017 RMK A01 T01910107  RH  060%=      5-min Rain = 0
KSVS 220205Z 11011KT 19/11 A3017 RMK A01 T01910111  RH  062%=      5-min Rain = 0
KSVS 220210Z 11012KT 19/11 A3018 RMK A01 T01900113  RH  063%=      5-min Rain = 0
KSVS 220215Z 11012KT 19/12 A3018 RMK A01 T01890115  RH  064%=      5-min Rain = 0
KSVS 220220Z 11012KT 19/12 A3018 RMK A01 T01880116  RH  065%=      5-min Rain = 0
KSVS 220225Z 11012KT 19/12 A3018 RMK A01 T01860116  RH  066%=      5-min Rain = 0
KSVS 220230Z 12011KT 19/12 A3018 RMK A01 T01850117  RH  067%=      5-min Rain = 0
KSVS 220235Z 12012KT 18/12 A3019 RMK A01 T01840118  RH  068%=      5-min Rain = 0
KSVS 220240Z 12011KT 18/12 A3019 RMK A01 T01820119  RH  069%=      5-min Rain = 0
KSVS 220245Z 12011KT 18/12 A3019 RMK A01 T01810119  RH  069%=      5-min Rain = 0
KSVS 220250Z 12011KT 18/12 A3019 RMK A01 T01790118  RH  070%=      5-min Rain = 0
KSVS 220255Z 12011KT 18/12 A3019 RMK A01 T01770118  RH  071%=      5-min Rain = 0
KSVS 220300Z 12010KT 17/12 A302 RMK A01 T01740117  RH  072%=      5-min Rain = 0
KSVS 220305Z 12010KT 17/12 A302 RMK A01 T01730117  RH  072%=      5-min Rain = 0
KSVS 220310Z 13009KT 17/12 A302 RMK A01 T01710117  RH  073%=      5-min Rain = 0
KSVS 220315Z 13009KT 17/12 A302 RMK A01 T01690116  RH  074%=      5-min Rain = 0
KSVS 220320Z 13009KT 17/12 A302 RMK A01 T01670116  RH  074%=      5-min Rain = 0
KSVS 220325Z 12009KT 17/12 A302 RMK A01 T01660116  RH  075%=      5-min Rain = 0
KSVS 220330Z 12009KT 16/12 A302 RMK A01 T01640116  RH  075%=      5-min Rain = 0
KSVS 220335Z 12008KT 16/12 A302 RMK A01 T01630115  RH  076%=      5-min Rain = 0
KSVS 220340Z 12008KT 16/12 A302 RMK A01 T01610115  RH  077%=      5-min Rain = 0
KSVS 220345Z 12007KT 16/11 A302 RMK A01 T01590114  RH  077%=      5-min Rain = 0
KSVS 220350Z 12007KT 16/11 A302 RMK A01 T01580113  RH  078%=      5-min Rain = 0
KSVS 220355Z 12007KT 16/11 A302 RMK A01 T01550112  RH  078%=      5-min Rain = 0
KSVS 220400Z 13006KT 15/11 A302 RMK A01 T01510110  RH  080%=      5-min Rain = 0
KSVS 220405Z 13007KT 15/11 A302 RMK A01 T01470109  RH  081%=      5-min Rain = 0
KSVS 220410Z 13006KT 14/11 A302 RMK A01 T01440108  RH  082%=      5-min Rain = 0
KSVS 220415Z 14006KT 14/11 A302 RMK A01 T01400106  RH  082%=      5-min Rain = 0
KSVS 220420Z 14005KT 14/10 A302 RMK A01 T01360104  RH  084%=      5-min Rain = 0
KSVS 220425Z 14005KT 14/10 A302 RMK A01 T01350104  RH  084%=      5-min Rain = 0
KSVS 220430Z 14004KT 13/10 A302 RMK A01 T01340104  RH  085%=      5-min Rain = 0
KSVS 220435Z 15004KT 14/11 A302 RMK A01 T01370106  RH  084%=      5-min Rain = 0
KSVS 220440Z 15005KT 14/11 A302 RMK A01 T01390106  RH  083%=      5-min Rain = 0
KSVS 220445Z 15005KT 14/11 A302 RMK A01 T01410107  RH  083%=      5-min Rain = 0
KSVS 220450Z 15005KT 14/11 A302 RMK A01 T01400106  RH  083%=      5-min Rain = 0
KSVS 220455Z 15006KT 14/10 A302 RMK A01 T01370104  RH  083%=      5-min Rain = 0

Page generated in 0.0271 seconds.